Main page
METAR-TAF:

METAR-TAF

Airports :

Coleman Municipal Airport

Coleman, Texas, United States

latitude: 31-50-28N, longitude: 099-24-12W, elevation: 1696 ft

Current weather observation

The report was made 29 minutes ago, at 22:35 UTC
Wind 15 mph from the West with gusts up to 28 mph
Temperature 66°F
Humidity 19%
Pressure 29.75 in. Hg
Visibility: 10 miles
Clear sky

METAR: KCOM 252235Z AUTO 27013G24KT 10SM CLR 19/M05 A2975 RMK AO2 T01881048

Time: 16:04 (23:04 UTC)


TAF: missing

Weather observations and forecasts of more than 4000 airports (METAR and TAF reports).

The available stations are represented by yellow and red dots on the map.

Hover mouse over dot to see the name of the station.

Then click to see weather observations and forecasts.

To change the map : click on the green buttons with a black cross to zoom in, on the green button with a dash to zoom out, or on the green arrows for adjacent maps.


METAR-TAF: